Time;durP1;ratioP1;P1;durP2;ratioP2;P2;SDS_P1;SDS_P2;PMS_P1;PMS_P2;Temp;Humidity;BMP_temperature;BMP_pressure;BME280_temperature;BME280_humidity;BME280_pressure;Samples;Min_cycle;Max_cycle;Signal;HPM_P1;HPM_P2
2024/03/24 00:05:46;;;;;;;10.27;3.42;;;6.30;95.30;;;;;;20678319;28;20046;-84
2024/03/24 00:27:09;;;;;;;9.48;4.20;;;6.10;99.90;;;;;;20682512;28;20007;-86
2024/03/24 00:37:32;;;;;;;10.48;4.60;;;6.10;99.90;;;;;;20665003;28;20034;-86
2024/03/24 00:47:40;;;;;;;12.27;4.10;;;6.20;99.90;;;;;;20664754;28;20116;-86
2024/03/24 00:57:45;;;;;;;11.88;3.78;;;6.30;99.90;;;;;;20655780;28;20042;-84
2024/03/24 01:07:54;;;;;;;12.32;3.92;;;6.40;99.90;;;;;;20681302;28;20031;-85
2024/03/24 01:17:59;;;;;;;12.60;4.18;;;6.50;99.90;;;;;;20655288;28;20046;-84
2024/03/24 01:28:01;;;;;;;13.48;4.57;;;6.50;99.90;;;;;;20665706;28;20035;-84
2024/03/24 01:38:08;;;;;;;12.63;4.38;;;6.60;99.90;;;;;;20581303;28;20039;-84
2024/03/24 01:48:25;;;;;;;11.73;3.80;;;6.70;99.90;;;;;;20607739;28;20057;-83
2024/03/24 01:58:32;;;;;;;;;;;7.10;93.60;;;;;;20649919;28;20035;-84
2024/03/24 02:08:38;;;;;;;;;;;7.10;70.60;;;;;;20601842;29;19912;-84
2024/03/24 02:18:49;;;;;;;7.03;2.55;;;7.00;90.30;;;;;;20586870;28;19933;-84
2024/03/24 02:28:57;;;;;;;9.82;2.95;;;6.70;99.90;;;;;;20607279;29;20055;-86
2024/03/24 02:39:06;;;;;;;4.65;1.40;;;6.40;99.90;;;;;;20520741;29;20036;-86
2024/03/24 02:49:16;;;;;;;6.22;2.13;;;6.20;99.90;;;;;;20520720;29;20032;-85
2024/03/24 02:59:20;;;;;;;12.70;4.00;;;6.00;99.90;;;;;;20555594;28;20038;-86
2024/03/24 03:09:29;;;;;;;6.60;2.10;;;6.10;99.90;;;;;;20646332;28;20031;-84
2024/03/24 03:19:42;;;;;;;1.95;0.70;;;6.30;99.90;;;;;;20662711;28;20062;-86
2024/03/24 03:29:45;;;;;;;3.70;0.90;;;5.70;99.90;;;;;;20673481;28;20103;-86
2024/03/24 04:00:11;;;;;;;5.25;0.90;;;5.60;99.90;;;;;;20884051;23;20174;-47
2024/03/24 04:10:12;;;;;;;2.88;1.02;;;5.50;99.90;;;;;;20968634;23;20135;-48
2024/03/24 04:20:12;;;;;;;4.13;1.17;;;5.50;99.90;;;;;;20932068;23;20106;-48
2024/03/24 04:30:13;;;;;;;5.20;1.67;;;5.50;99.90;;;;;;20902302;23;20919;-48
2024/03/24 04:40:14;;;;;;;6.32;1.27;;;5.50;99.90;;;;;;20917989;23;20052;-47
2024/03/24 04:50:15;;;;;;;4.88;1.70;;;5.30;99.90;;;;;;20523694;23;20074;-47
2024/03/24 05:00:16;;;;;;;4.75;1.73;;;5.40;99.90;;;;;;20951121;23;20067;-47
2024/03/24 05:10:18;;;;;;;10.23;2.95;;;5.40;99.90;;;;;;20796138;23;20052;-79
2024/03/24 05:20:19;;;;;;;8.30;2.45;;;5.60;99.90;;;;;;20875794;23;20962;-49
2024/03/24 05:30:25;;;;;;;5.70;1.70;;;5.90;99.90;;;;;;20719228;23;20043;-80
2024/03/24 05:41:07;;;;;;;8.13;2.30;;;5.60;99.90;;;;;;20529944;28;20455;-81
2024/03/24 05:51:07;;;;;;;13.30;3.15;;;5.60;99.90;;;;;;20441874;23;20052;-48
2024/03/24 06:01:08;;;;;;;11.87;2.70;;;5.40;99.90;;;;;;21003710;23;20055;-47
2024/03/24 06:11:09;;;;;;;12.17;3.57;;;5.30;99.90;;;;;;20913964;23;20503;-48
2024/03/24 06:21:09;;;;;;;13.50;3.90;;;5.20;99.90;;;;;;20736888;23;20622;-48
2024/03/24 06:31:10;;;;;;;21.10;3.97;;;5.30;99.90;;;;;;20689001;23;20224;-49
2024/03/24 07:02:50;;;;;;;10.90;3.00;;;5.90;99.90;;;;;;20542582;23;20048;-79
2024/03/24 07:12:59;;;;;;;18.52;3.97;;;5.70;99.90;;;;;;20700064;23;20139;-48
2024/03/24 07:22:59;;;;;;;23.63;4.60;;;5.70;99.90;;;;;;20927363;23;20134;-48
2024/03/24 07:33:00;;;;;;;15.47;3.70;;;6.00;99.90;;;;;;20975264;23;20531;-47
2024/03/24 07:43:01;;;;;;;20.55;3.40;;;6.20;99.90;;;;;;20517748;23;20538;-48
2024/03/24 08:03:12;;;;;;;17.63;3.35;;;5.90;99.90;;;;;;20744249;23;20075;-78
2024/03/24 08:13:14;;;;;;;12.63;3.60;;;5.90;99.90;;;;;;20454788;28;20047;-79
2024/03/24 08:23:16;;;;;;;15.00;2.95;;;6.40;99.90;;;;;;20699766;23;20549;-47
2024/03/24 08:33:16;;;;;;;14.88;3.05;;;6.60;99.90;;;;;;20999247;23;20179;-47
2024/03/24 08:43:17;;;;;;;18.38;3.28;;;6.50;99.90;;;;;;20591955;23;20056;-47
2024/03/24 08:53:17;;;;;;;10.65;2.17;;;6.60;99.90;;;;;;20945790;23;20048;-48
2024/03/24 09:03:28;;;;;;;5.97;1.40;;;6.70;99.90;;;;;;20847267;23;20059;-80
2024/03/24 09:13:36;;;;;;;8.95;1.35;;;6.20;99.90;;;;;;20615573;28;20497;-80
2024/03/24 09:23:37;;;;;;;7.90;2.13;;;6.30;99.90;;;;;;20691951;23;20143;-47
2024/03/24 09:33:37;;;;;;;8.17;1.37;;;6.60;99.90;;;;;;20722536;23;20067;-49
2024/03/24 09:53:49;;;;;;;13.07;2.20;;;6.90;99.90;;;;;;13157405;23;21130;-49
2024/03/24 10:03:49;;;;;;;15.18;2.42;;;7.00;99.90;;;;;;20950685;23;20193;-48
2024/03/24 10:13:50;;;;;;;17.48;3.05;;;7.20;99.90;;;;;;20867014;23;20138;-49
2024/03/24 10:23:51;;;;;;;18.13;2.92;;;7.50;99.90;;;;;;20963496;23;20088;-48
2024/03/24 10:43:56;;;;;;;18.33;2.67;;;7.70;66.10;;;;;;20876772;23;20630;-48
2024/03/24 10:54:02;;;;;;;9.82;1.90;;;7.70;53.00;;;;;;20687557;23;20092;-48
2024/03/24 11:04:05;;;;;;;16.17;1.88;;;7.80;45.20;;;;;;20661359;23;20048;-48
2024/03/24 11:14:07;;;;;;;14.85;3.50;;;8.00;43.40;;;;;;20821221;23;20052;-48
2024/03/24 11:34:52;;;;;;;10.93;2.25;;;7.90;48.80;;;;;;13320672;23;20030;-47
2024/03/24 11:44:53;;;;;;;13.35;2.42;;;7.90;49.00;;;;;;20704158;23;20507;-49
2024/03/24 11:55:31;;;;;;;13.05;2.88;;;8.90;42.70;;;;;;20455465;23;20063;-79
2024/03/24 12:05:33;;;;;;;12.68;2.30;;;9.30;7.60;;;;;;20613287;23;20056;-49
2024/03/24 12:15:33;;;;;;;15.20;3.07;;;9.50;13.50;;;;;;20801407;23;20051;-49
2024/03/24 12:25:36;;;;;;;19.48;5.85;;;10.40;1.00;;;;;;20770253;23;20502;-78
2024/03/24 12:35:38;;;;;;;11.90;2.42;;;9.50;3.60;;;;;;20570618;28;20082;-79
2024/03/24 12:45:49;;;;;;;10.27;2.60;;;9.10;37.40;;;;;;20482154;23;20345;-46
2024/03/24 13:06:03;;;;;;;11.95;2.00;;;9.30;10.40;;;;;;15972076;23;20878;-48
2024/03/24 13:16:04;;;;;;;11.90;1.95;;;9.50;31.60;;;;;;20911897;23;20107;-49
2024/03/24 13:26:07;;;;;;;11.77;3.28;;;9.80;9.80;;;;;;20816927;23;20361;-49
2024/03/24 13:36:17;;;;;;;19.50;3.42;;;8.80;25.00;;;;;;20975469;23;20043;-47
2024/03/24 13:46:20;;;;;;;17.70;3.15;;;8.50;85.70;;;;;;20912612;23;20063;-48
2024/03/24 13:56:20;;;;;;;20.60;4.43;;;8.50;79.10;;;;;;20677142;23;1542632;-48
2024/03/24 14:06:23;;;;;;;13.48;2.75;;;8.80;61.50;;;;;;20838104;23;20066;-47
2024/03/24 14:16:30;;;;;;;14.77;2.95;;;8.40;58.00;;;;;;20915698;23;20492;-49
2024/03/24 14:26:31;;;;;;;23.17;3.65;;;8.10;83.20;;;;;;20924614;23;20051;-47
2024/03/24 15:06:49;;;;;;;23.58;3.83;;;8.10;99.90;;;;;;20962826;23;20047;-47
2024/03/24 15:16:50;;;;;;;20.70;3.53;;;8.20;99.20;;;;;;20845275;23;20063;-48
2024/03/24 15:26:50;;;;;;;14.68;3.05;;;8.20;99.90;;;;;;20894068;23;20502;-47
2024/03/24 15:36:53;;;;;;;19.43;3.10;;;8.50;99.90;;;;;;20437271;23;20060;-80
2024/03/24 15:46:54;;;;;;;14.32;2.78;;;8.40;95.60;;;;;;20439389;29;20472;-79
2024/03/24 15:57:13;;;;;;;19.70;3.55;;;8.60;84.80;;;;;;20338137;23;20144;-49
2024/03/24 16:07:24;;;;;;;16.15;3.13;;;8.80;83.20;;;;;;20784207;23;20055;-50
2024/03/24 16:27:45;;;;;;;14.07;2.30;;;8.30;59.50;;;;;;13628700;23;20719;-47
2024/03/24 16:49:17;;;;;;;19.27;3.65;;;8.30;43.40;;;;;;20763314;23;20055;-80
2024/03/24 16:59:17;;;;;;;20.77;3.22;;;8.40;41.70;;;;;;20598229;23;20539;-49
2024/03/24 17:09:18;;;;;;;19.35;3.63;;;8.40;32.30;;;;;;20526274;23;21156;-48
2024/03/24 17:19:19;;;;;;;22.97;3.60;;;8.20;25.00;;;;;;20563348;23;20062;-47
2024/03/24 17:29:20;;;;;;;19.15;4.72;;;8.20;22.40;;;;;;20728968;23;20515;-46
2024/03/24 17:39:23;;;;;;;11.00;2.38;;;8.20;18.50;;;;;;20477883;23;20134;-78
2024/03/24 17:49:23;;;;;;;17.33;3.08;;;8.00;15.50;;;;;;20511141;23;20090;-79
2024/03/24 17:59:26;;;;;;;16.00;3.23;;;7.70;16.40;;;;;;20474292;28;20052;-78
2024/03/24 18:19:51;;;;;;;24.65;4.88;;;7.60;32.70;;;;;;20517200;28;20056;-78
2024/03/24 18:29:53;;;;;;;12.23;2.83;;;7.70;31.30;;;;;;20437206;29;20048;-79
2024/03/24 18:39:56;;;;;;;17.45;2.80;;;7.50;24.00;;;;;;20456127;29;20047;-78
2024/03/24 18:50:01;;;;;;;13.57;3.90;;;7.20;25.00;;;;;;20512582;29;20107;-79
2024/03/24 19:00:03;;;;;;;16.20;3.40;;;7.00;29.60;;;;;;20491264;29;20103;-79
2024/03/24 19:10:06;;;;;;;15.15;3.28;;;7.10;29.50;;;;;;20503593;29;20068;-79
2024/03/24 19:20:13;;;;;;;20.67;4.45;;;7.00;36.80;;;;;;20500476;29;20044;-78
2024/03/24 19:51:31;;;;;;;20.38;3.22;;;7.10;44.70;;;;;;20681921;23;20507;-51
2024/03/24 20:01:32;;;;;;;12.88;3.33;;;6.90;71.40;;;;;;20862651;23;20051;-48
2024/03/24 20:11:33;;;;;;;15.85;3.08;;;6.40;59.00;;;;;;20563837;23;20055;-47
2024/03/24 20:21:33;;;;;;;19.27;4.97;;;6.20;55.10;;;;;;20844625;23;20060;-47
2024/03/24 20:31:35;;;;;;;17.80;3.20;;;6.20;59.40;;;;;;20781925;23;20056;-49
2024/03/24 20:41:36;;;;;;;16.08;3.35;;;6.20;68.90;;;;;;20857419;23;20511;-48
2024/03/24 21:11:52;;;;;;;21.80;5.45;;;6.20;99.90;;;;;;20928357;23;20056;-49
2024/03/24 21:21:52;;;;;;;24.02;4.97;;;6.30;99.90;;;;;;20892970;23;20051;-48
2024/03/24 21:31:54;;;;;;;12.98;2.50;;;6.40;99.90;;;;;;20979561;23;20036;-47
2024/03/24 21:42:07;;;;;;;18.90;2.55;;;6.20;99.90;;;;;;20957075;23;20084;-48
2024/03/24 21:52:08;;;;;;;11.55;2.15;;;6.20;99.90;;;;;;20824047;23;20040;-47
2024/03/24 22:02:09;;;;;;;9.80;1.70;;;6.00;99.90;;;;;;20762250;23;20461;-47
2024/03/24 22:12:09;;;;;;;11.85;2.63;;;5.80;99.90;;;;;;20783399;23;20048;-47
2024/03/24 22:22:15;;;;;;;18.23;2.28;;;5.80;99.90;;;;;;20786817;23;20094;-47
2024/03/24 22:32:15;;;;;;;14.18;1.98;;;5.80;99.90;;;;;;20821572;23;20522;-48
2024/03/24 23:03:14;;;;;;;16.73;2.38;;;5.50;99.90;;;;;;20445944;29;20040;-80
2024/03/24 23:13:16;;;;;;;13.50;2.45;;;5.40;99.90;;;;;;20449309;23;20074;-49
2024/03/24 23:23:17;;;;;;;17.13;2.70;;;5.30;99.90;;;;;;20836238;23;20059;-48
2024/03/24 23:33:18;;;;;;;17.42;2.40;;;5.30;99.90;;;;;;20937401;23;20059;-48
2024/03/24 23:43:18;;;;;;;10.07;2.00;;;5.30;99.90;;;;;;20895232;23;20053;-49
2024/03/24 23:53:19;;;;;;;13.00;2.45;;;5.30;99.90;;;;;;20718928;23;20060;-48
